Time;durP1;ratioP1;P1;durP2;ratioP2;P2;SDS_P1;SDS_P2;PMS_P1;PMS_P2;Temp;Humidity;BMP_temperature;BMP_pressure;BME280_temperature;BME280_humidity;BME280_pressure;Samples;Min_cycle;Max_cycle;Signal;HPM_P1;HPM_P2
2021/03/08 00:00:37;;;;;;;3.10;2.17;;;;;;;-1.42;100.00;99797.39;1819908;78;21200;-74
2021/03/08 00:03:06;;;;;;;3.43;2.33;;;;;;;-1.42;100.00;99783.28;1796416;79;21499;-75
2021/03/08 00:05:34;;;;;;;3.90;2.67;;;;;;;-1.43;100.00;99783.77;1819957;78;20941;-75
2021/03/08 00:08:05;;;;;;;1.57;1.47;;;;;;;-1.42;100.00;99777.98;1796414;80;20989;-75
2021/03/08 00:10:34;;;;;;;4.43;2.40;;;;;;;-1.44;100.00;99770.13;1820102;78;20986;-74
2021/03/08 00:13:03;;;;;;;2.23;2.10;;;;;;;-1.45;100.00;99772.87;1820226;78;21785;-75
2021/03/08 00:15:32;;;;;;;3.47;2.90;;;;;;;-1.47;100.00;99773.45;1796392;80;21036;-74
2021/03/08 00:18:01;;;;;;;3.50;2.47;;;;;;;-1.49;100.00;99770.89;1820163;78;20958;-77
2021/03/08 00:20:30;;;;;;;2.27;2.07;;;;;;;-1.49;100.00;99758.13;1796599;79;20977;-76
2021/03/08 00:22:58;;;;;;;2.83;2.33;;;;;;;-1.49;100.00;99748.35;1820155;78;20942;-76
2021/03/08 00:25:32;;;;;;;2.70;2.50;;;;;;;-1.54;100.00;99747.35;1796641;79;21025;-75
2021/03/08 00:28:01;;;;;;;2.58;2.35;;;;;;;-1.59;100.00;99732.22;1820302;78;21001;-75
2021/03/08 00:30:29;;;;;;;4.33;2.20;;;;;;;-1.67;100.00;99727.88;1796463;80;20993;-76
2021/03/08 00:32:57;;;;;;;2.20;2.03;;;;;;;-1.71;100.00;99731.70;1820282;78;21037;-75
2021/03/08 00:35:26;;;;;;;2.73;1.80;;;;;;;-1.75;100.00;99723.09;1765405;80;20994;-74
2021/03/08 00:37:54;;;;;;;4.33;2.70;;;;;;;-1.79;100.00;99718.08;1793994;80;21366;-74
2021/03/08 00:40:22;;;;;;;4.77;2.63;;;;;;;-1.84;100.00;99711.77;1794019;80;20955;-75
2021/03/08 00:42:50;;;;;;;4.93;2.73;;;;;;;-1.87;100.00;99709.80;1793921;80;21077;-75
2021/03/08 00:45:21;;;;;;;3.73;2.80;;;;;;;-1.89;100.00;99697.97;1793934;80;21033;-74
2021/03/08 00:47:59;;;;;;;6.17;3.23;;;;;;;-1.89;100.00;99694.00;1890860;76;26742;-76
2021/03/08 00:50:29;;;;;;;3.83;2.57;;;;;;;-1.96;100.00;99692.22;1861260;77;20927;-75
2021/03/08 00:52:57;;;;;;;5.30;3.13;;;;;;;-1.99;100.00;99693.73;1861195;77;21189;-76
2021/03/08 00:55:27;;;;;;;4.43;3.20;;;;;;;-2.02;100.00;99693.08;1860707;77;21010;-75
2021/03/08 00:57:56;;;;;;;8.70;3.10;;;;;;;-2.04;100.00;99685.22;1861209;77;21440;-76
2021/03/08 01:00:26;;;;;;;7.33;3.00;;;;;;;-2.06;100.00;99691.59;1861120;77;21006;-75
2021/03/08 01:02:56;;;;;;;4.80;2.97;;;;;;;-2.09;100.00;99685.99;1861046;77;21041;-75
2021/03/08 01:05:27;;;;;;;8.80;3.70;;;;;;;-2.11;100.00;99690.09;1861054;77;22415;-74
2021/03/08 01:07:55;;;;;;;7.03;2.87;;;;;;;-2.10;100.00;99676.37;1861151;77;21002;-75
2021/03/08 01:10:29;;;;;;;7.87;2.43;;;;;;;-2.10;100.00;99677.20;1856327;77;21003;-75
2021/03/08 01:12:58;;;;;;;4.42;3.50;;;;;;;-2.09;100.00;99668.77;1861252;77;20935;-74
2021/03/08 01:15:27;;;;;;;5.80;2.80;;;;;;;-2.07;100.00;99666.91;1861107;77;20959;-76
2021/03/08 01:17:55;;;;;;;3.83;3.07;;;;;;;-2.08;100.00;99664.34;1861091;77;21649;-75
2021/03/08 01:20:23;;;;;;;4.07;2.80;;;;;;;-2.10;100.00;99669.26;1861018;77;21041;-76
2021/03/08 01:22:51;;;;;;;4.47;2.67;;;;;;;-2.09;100.00;99664.80;1861240;77;21033;-75
2021/03/08 01:25:23;;;;;;;8.63;3.33;;;;;;;-2.08;100.00;99663.86;1861191;77;20892;-75
2021/03/08 01:27:51;;;;;;;6.83;3.90;;;;;;;-2.06;100.00;99657.14;1861113;77;21160;-76
2021/03/08 01:30:22;;;;;;;4.63;3.23;;;;;;;-2.10;100.00;99662.63;1861119;77;21360;-75
2021/03/08 01:32:50;;;;;;;5.33;2.63;;;;;;;-2.09;100.00;99663.47;1861135;77;21029;-75
2021/03/08 01:35:21;;;;;;;7.57;2.90;;;;;;;-2.10;100.00;99654.69;1876115;76;21463;-75
2021/03/08 01:37:48;;;;;;;7.93;3.60;;;;;;;-2.11;100.00;99649.03;1861200;77;20883;-75
2021/03/08 01:40:17;;;;;;;11.10;4.00;;;;;;;-2.14;100.00;99651.88;1861267;77;21587;-76
2021/03/08 01:42:46;;;;;;;6.77;3.07;;;;;;;-2.13;100.00;99652.23;1861283;77;21367;-77
2021/03/08 01:45:16;;;;;;;4.63;3.13;;;;;;;-2.12;100.00;99648.64;1861013;77;20958;-76
2021/03/08 01:47:45;;;;;;;3.20;2.67;;;;;;;-2.13;100.00;99647.41;1753374;81;21585;-75
2021/03/08 01:50:19;;;;;;;7.00;3.03;;;;;;;-2.15;100.00;99645.34;1755442;81;21064;-77
2021/03/08 01:52:46;;;;;;;;;;;;;;;-2.17;100.00;99640.63;1758113;81;20946;-76
2021/03/08 01:55:14;;;;;;;2.23;2.00;;;;;;;-2.19;100.00;99636.75;1755422;81;21373;-76
2021/03/08 01:57:42;;;;;;;4.57;3.47;;;;;;;-2.21;100.00;99637.33;1755148;81;20989;-76
2021/03/08 02:00:15;;;;;;;5.40;2.90;;;;;;;-2.26;100.00;99639.42;1751619;81;21626;-76
2021/03/08 02:02:43;;;;;;;2.87;1.87;;;;;;;-2.30;100.00;99639.25;1754912;81;20974;-76
2021/03/08 02:05:16;;;;;;;2.63;2.43;;;;;;;-2.34;100.00;99639.93;1754901;81;21173;-75
2021/03/08 02:07:44;;;;;;;2.20;1.92;;;;;;;-2.36;100.00;99641.80;1755104;81;21522;-76
2021/03/08 02:10:14;;;;;;;12.50;3.80;;;;;;;-2.39;100.00;99645.99;1754862;81;20989;-76
2021/03/08 02:12:50;;;;;;;5.20;3.20;;;;;;;-2.43;100.00;99644.47;1755085;81;21716;-76
2021/03/08 02:16:01;;;;;;;4.37;2.63;;;;;;;-2.44;100.00;99640.59;1754955;81;21064;-77
2021/03/08 02:18:35;;;;;;;7.43;2.60;;;;;;;-2.46;100.00;99640.72;1755080;81;21001;-75
2021/03/08 02:21:11;;;;;;;8.60;3.23;;;;;;;-2.51;100.00;99642.32;1755022;81;21207;-76
2021/03/08 02:24:14;;;;;;;4.53;3.13;;;;;;;-2.54;100.00;99637.69;1754878;81;21024;-75
2021/03/08 02:26:55;;;;;;;6.93;3.07;;;;;;;-2.56;100.00;99635.14;1845483;76;26394;-75
2021/03/08 02:29:54;;;;;;;6.20;2.37;;;;;;;-2.63;100.00;99640.45;1814695;79;21521;-76
2021/03/08 02:32:38;;;;;;;5.27;4.17;;;;;;;-2.68;100.00;99632.78;1815641;79;21195;-76
2021/03/08 02:35:18;;;;;;;4.60;2.87;;;;;;;-2.71;100.00;99636.09;1791838;78;20961;-77
2021/03/08 02:38:03;;;;;;;7.00;3.67;;;;;;;-2.76;100.00;99636.41;1783582;80;21009;-75
2021/03/08 02:40:45;;;;;;;5.47;3.10;;;;;;;-2.80;100.00;99636.20;1703913;84;21643;-75
2021/03/08 02:43:31;;;;;;;11.50;3.33;;;;;;;-2.81;100.00;99625.26;1852210;76;25203;-76
2021/03/08 02:46:02;;;;;;;8.30;2.97;;;;;;;-2.87;100.00;99621.66;1783088;80;21668;-77
2021/03/08 02:48:30;;;;;;;5.97;2.87;;;;;;;-2.90;100.00;99628.48;1855653;77;21183;-76
2021/03/08 02:50:58;;;;;;;3.03;2.47;;;;;;;-2.93;100.00;99633.95;1826014;76;21362;-76
2021/03/08 02:53:27;;;;;;;4.60;2.60;;;;;;;-2.96;100.00;99629.69;1782907;80;21028;-76
2021/03/08 02:55:59;;;;;;;5.80;2.83;;;;;;;-2.96;100.00;99629.69;1821930;78;20936;-75
2021/03/08 02:58:28;;;;;;;6.62;3.40;;;;;;;-2.97;100.00;99629.33;1710764;83;21021;-76
2021/03/08 03:00:59;;;;;;;5.23;2.80;;;;;;;-2.99;100.00;99627.26;1706916;83;22338;-76
2021/03/08 03:03:31;;;;;;;3.10;2.47;;;;;;;-2.97;100.00;99621.39;1710576;83;20961;-76
2021/03/08 03:05:59;;;;;;;3.17;2.47;;;;;;;-2.97;100.00;99615.27;1710573;83;21013;-76
2021/03/08 03:08:28;;;;;;;5.37;3.03;;;;;;;-2.97;100.00;99616.59;1687103;83;21089;-77
2021/03/08 03:10:56;;;;;;;2.77;2.40;;;;;;;-2.96;100.00;99616.46;1710476;83;21164;-75
2021/03/08 03:13:25;;;;;;;4.53;2.57;;;;;;;-2.97;100.00;99612.14;1710532;83;21307;-76
2021/03/08 03:15:53;;;;;;;4.47;2.63;;;;;;;-2.95;100.00;99625.27;1710563;83;21077;-77
2021/03/08 03:18:21;;;;;;;5.60;3.43;;;;;;;-2.94;100.00;99621.22;1710597;83;21646;-77
2021/03/08 03:20:50;;;;;;;3.37;2.87;;;;;;;-2.93;100.00;99613.63;1710411;83;21630;-76
2021/03/08 03:23:24;;;;;;;5.53;3.30;;;;;;;-2.92;100.00;99611.38;1687456;83;21348;-77
2021/03/08 03:25:52;;;;;;;2.57;2.37;;;;;;;-2.91;100.00;99612.22;1710533;83;21666;-76
2021/03/08 03:28:21;;;;;;;7.40;3.33;;;;;;;-2.89;100.00;99625.72;1685827;83;21661;-76
2021/03/08 03:30:49;;;;;;;4.20;3.33;;;;;;;-2.88;100.00;99616.84;1655545;84;21167;-76
2021/03/08 03:33:18;;;;;;;7.03;3.47;;;;;;;-2.90;100.00;99612.13;1699841;84;21016;-76
2021/03/08 03:35:47;;;;;;;3.93;3.30;;;;;;;-2.92;100.00;99615.34;1620699;88;21002;-75
2021/03/08 03:38:18;;;;;;;2.83;2.60;;;;;;;-2.91;100.00;99612.22;1644021;87;21682;-77
2021/03/08 03:40:48;;;;;;;2.50;1.87;;;;;;;-2.92;100.00;99610.05;1643944;87;21614;-77
2021/03/08 03:43:16;;;;;;;3.10;2.23;;;;;;;-2.94;100.00;99612.41;1643856;86;21064;-75
2021/03/08 03:45:45;;;;;;;3.83;2.83;;;;;;;-2.97;100.00;99613.45;1643906;87;21044;-76
2021/03/08 03:48:13;;;;;;;2.23;2.03;;;;;;;-2.98;100.00;99616.20;1644101;87;21646;-78
2021/03/08 03:50:41;;;;;;;3.33;2.10;;;;;;;-2.99;100.00;99614.48;1643869;87;22130;-76
2021/03/08 03:53:09;;;;;;;2.90;2.63;;;;;;;-3.00;100.00;99610.16;1643828;87;21017;-76
2021/03/08 03:55:38;;;;;;;4.30;2.70;;;;;;;-3.03;100.00;99611.17;1722163;81;21024;-77
2021/03/08 03:58:27;;;;;;;4.00;2.73;;;;;;;-3.06;100.00;99610.06;1757070;81;20976;-77
2021/03/08 04:01:11;;;;;;;2.40;2.20;;;;;;;-3.10;100.00;99612.50;1748042;82;21044;-76
2021/03/08 04:04:12;;;;;;;3.57;2.87;;;;;;;-3.14;100.00;99614.48;1757044;81;21204;-75
2021/03/08 04:06:49;;;;;;;2.33;1.57;;;;;;;-3.18;100.00;99607.70;1757051;81;21480;-76
2021/03/08 04:09:18;;;;;;;9.17;2.50;;;;;;;-3.21;100.00;99605.72;1757138;81;21189;-76
2021/03/08 04:11:47;;;;;;;2.40;2.20;;;;;;;-3.26;100.00;99600.70;1757111;81;20992;-77
2021/03/08 04:14:18;;;;;;;4.03;2.70;;;;;;;-3.25;100.00;99610.34;1757369;81;20995;-78
2021/03/08 04:16:49;;;;;;;4.43;2.63;;;;;;;-3.23;100.00;99605.80;1757311;81;21165;-77
2021/03/08 04:19:21;;;;;;;4.77;3.23;;;;;;;-3.21;100.00;99606.55;1756991;81;20990;-77
2021/03/08 04:21:49;;;;;;;4.23;2.67;;;;;;;-3.19;100.00;99605.98;1757114;81;21091;-76
2021/03/08 04:24:17;;;;;;;3.93;3.03;;;;;;;-3.19;100.00;99610.44;1757237;81;20980;-76
2021/03/08 04:26:45;;;;;;;7.30;3.57;;;;;;;-3.18;100.00;99609.50;1730098;81;21021;-76
2021/03/08 04:29:13;;;;;;;2.63;2.43;;;;;;;-3.19;100.00;99599.86;1771922;80;21464;-76
2021/03/08 04:31:41;;;;;;;7.20;3.23;;;;;;;-3.20;100.00;99596.37;1820664;78;20922;-75
2021/03/08 04:34:10;;;;;;;4.10;2.83;;;;;;;-3.18;100.00;99599.77;1798868;78;21038;-77
2021/03/08 04:36:38;;;;;;;3.40;2.50;;;;;;;-3.18;100.00;99598.44;1748967;82;20946;-75
2021/03/08 04:39:06;;;;;;;4.70;2.50;;;;;;;-3.16;100.00;99593.91;1766515;80;20991;-76
2021/03/08 04:41:35;;;;;;;2.27;2.07;;;;;;;-3.15;100.00;99592.09;1766535;81;22540;-76
2021/03/08 04:44:03;;;;;;;4.20;3.10;;;;;;;-3.15;100.00;99592.97;1770219;81;21038;-76
2021/03/08 04:46:31;;;;;;;5.93;3.17;;;;;;;-3.14;100.00;99590.69;1786278;80;21605;-76
2021/03/08 04:49:00;;;;;;;5.20;3.57;;;;;;;-3.10;100.00;99586.05;1756690;81;20948;-75
2021/03/08 04:51:28;;;;;;;6.33;3.47;;;;;;;-3.09;100.00;99593.90;1786279;80;21017;-75
2021/03/08 04:53:57;;;;;;;4.87;3.30;;;;;;;-3.04;100.00;99594.11;1756759;81;21296;-76
2021/03/08 04:56:27;;;;;;;6.13;3.23;;;;;;;-2.99;100.00;99591.55;1756527;80;21016;-76
2021/03/08 04:58:55;;;;;;;2.60;2.20;;;;;;;-2.92;100.00;99590.66;1756608;81;20992;-76
2021/03/08 05:01:23;;;;;;;3.13;2.70;;;;;;;-2.86;100.00;99600.88;1786052;80;21040;-75
2021/03/08 05:03:52;;;;;;;4.30;3.23;;;;;;;-2.81;100.00;99592.18;1756847;81;21316;-75
2021/03/08 05:06:20;;;;;;;4.30;3.10;;;;;;;-2.74;100.00;99590.00;1786215;80;21195;-75
2021/03/08 05:08:49;;;;;;;3.70;2.77;;;;;;;-2.70;100.00;99594.14;1739297;81;21095;-75
2021/03/08 05:11:17;;;;;;;7.23;3.60;;;;;;;-2.63;100.00;99593.28;1786033;80;21002;-76
2021/03/08 05:13:48;;;;;;;4.73;3.23;;;;;;;-2.57;100.00;99599.02;1786101;80;21011;-77
2021/03/08 05:16:17;;;;;;;6.23;3.87;;;;;;;-2.50;100.00;99594.18;1786126;80;21006;-75
2021/03/08 05:18:46;;;;;;;7.17;3.87;;;;;;;-2.45;100.00;99599.19;1786259;80;21367;-75
2021/03/08 05:21:14;;;;;;;10.70;4.20;;;;;;;-2.40;100.00;99589.16;1786152;80;21006;-77
2021/03/08 05:23:43;;;;;;;6.30;3.70;;;;;;;-2.36;100.00;99586.19;1786240;80;21066;-76
2021/03/08 05:26:11;;;;;;;6.93;3.73;;;;;;;-2.33;100.00;99588.64;1759903;80;21015;-76
2021/03/08 05:28:39;;;;;;;18.37;6.00;;;;;;;-2.27;100.00;99594.49;1787989;80;21630;-76
2021/03/08 05:31:07;;;;;;;7.63;4.70;;;;;;;-2.23;100.00;99589.36;1794033;80;21658;-76
2021/03/08 05:33:35;;;;;;;8.90;4.73;;;;;;;-2.18;100.00;99593.43;1793179;78;21519;-77
2021/03/08 05:36:03;;;;;;;4.40;3.47;;;;;;;-2.10;100.00;99595.56;1786154;80;21040;-75
2021/03/08 05:38:32;;;;;;;9.93;4.83;;;;;;;-2.03;100.00;99597.34;1786097;80;20938;-76
2021/03/08 05:41:16;;;;;;;7.70;4.67;;;;;;;-1.99;100.00;99593.04;1786001;80;21005;-76
2021/03/08 05:43:47;;;;;;;7.83;4.03;;;;;;;-1.93;100.00;99603.25;1748239;81;21829;-76
2021/03/08 05:46:28;;;;;;;8.70;5.10;;;;;;;-1.86;100.00;99598.84;1748975;82;21010;-74
2021/03/08 05:49:30;;;;;;;10.08;4.53;;;;;;;-1.84;100.00;99595.16;1745957;82;21185;-75
2021/03/08 05:52:45;;;;;;;10.73;5.03;;;;;;;-1.81;100.00;99600.23;1744525;82;21010;-76
2021/03/08 05:55:48;;;;;;;7.27;3.70;;;;;;;-1.75;100.00;99610.92;1748976;82;21580;-76
2021/03/08 05:58:58;;;;;;;8.63;4.67;;;;;;;-1.70;100.00;99602.64;1749080;80;21385;-77
2021/03/08 06:02:04;;;;;;;7.27;4.23;;;;;;;-1.66;100.00;99607.64;1748701;82;21047;-76
2021/03/08 06:05:07;;;;;;;6.57;3.50;;;;;;;-1.59;100.00;99606.27;1748925;82;21627;-77
2021/03/08 06:08:14;;;;;;;7.70;4.27;;;;;;;-1.50;100.00;99611.91;1748890;82;21839;-77
2021/03/08 06:10:50;;;;;;;6.83;3.90;;;;;;;-1.47;100.00;99601.94;1748812;81;21110;-75
2021/03/08 06:13:56;;;;;;;7.27;3.50;;;;;;;-1.38;100.00;99608.39;1845215;76;26935;-76
2021/03/08 06:16:33;;;;;;;8.00;4.07;;;;;;;-1.39;100.00;99606.71;1815901;78;20905;-76
2021/03/08 06:19:05;;;;;;;7.97;4.83;;;;;;;-1.35;100.00;99607.73;1763492;78;21430;-76
2021/03/08 06:21:35;;;;;;;13.87;4.63;;;;;;;-1.28;100.00;99601.98;1763665;81;21067;-76
2021/03/08 06:24:06;;;;;;;11.27;5.03;;;;;;;-1.22;100.00;99606.86;1763621;81;21189;-76
2021/03/08 06:26:41;;;;;;;5.87;3.70;;;;;;;-1.13;100.00;99598.28;1852211;76;26890;-75
2021/03/08 06:29:09;;;;;;;5.53;3.27;;;;;;;-1.12;100.00;99598.63;1784284;79;20883;-75
2021/03/08 06:31:38;;;;;;;6.93;3.80;;;;;;;-1.08;100.00;99612.08;1855620;77;21197;-76
2021/03/08 06:34:06;;;;;;;11.23;4.70;;;;;;;-1.00;100.00;99612.85;1844832;77;21014;-76
2021/03/08 06:36:34;;;;;;;7.90;4.13;;;;;;;-0.94;100.00;99607.59;1782990;80;21022;-76
2021/03/08 06:39:02;;;;;;;8.50;4.43;;;;;;;-0.90;100.00;99599.31;1822032;78;20998;-76
2021/03/08 06:41:33;;;;;;;9.33;4.53;;;;;;;-0.84;100.00;99604.17;1821998;78;21120;-75
2021/03/08 06:44:03;;;;;;;8.03;4.67;;;;;;;-0.77;100.00;99596.13;1822002;78;21269;-75
2021/03/08 06:46:31;;;;;;;9.60;5.17;;;;;;;-0.68;100.00;99593.30;1782934;80;20989;-76
2021/03/08 06:49:02;;;;;;;9.63;3.93;;;;;;;-0.61;100.00;99584.42;1821966;78;20986;-75
2021/03/08 06:51:30;;;;;;;7.43;4.70;;;;;;;-0.55;100.00;99589.77;1821884;78;21028;-75
2021/03/08 06:53:58;;;;;;;7.73;4.10;;;;;;;-0.50;100.00;99583.15;1821911;78;20918;-75
2021/03/08 06:56:27;;;;;;;10.77;4.97;;;;;;;-0.45;100.00;99585.00;1821884;78;22006;-76
2021/03/08 06:59:13;;;;;;;5.53;3.77;;;;;;;-0.36;100.00;99578.66;1821961;78;21008;-75
2021/03/08 07:01:41;;;;;;;7.07;4.30;;;;;;;-0.26;100.00;99571.70;1821702;78;20914;-76
2021/03/08 07:04:16;;;;;;;15.30;5.30;;;;;;;-0.20;100.00;99571.23;1818845;78;21580;-76
2021/03/08 07:07:09;;;;;;;11.17;5.30;;;;;;;-0.11;100.00;99566.56;1845603;76;25812;-75
2021/03/08 07:09:52;;;;;;;10.53;4.70;;;;;;;-0.07;100.00;99558.75;1815437;79;20929;-77
2021/03/08 07:12:21;;;;;;;11.33;5.37;;;;;;;0.03;100.00;99558.88;1815504;79;21360;-75
2021/03/08 07:15:07;;;;;;;7.43;4.13;;;;;;;0.09;100.00;99553.58;1815527;79;21682;-76
2021/03/08 07:17:37;;;;;;;8.20;4.50;;;;;;;0.16;100.00;99548.16;1815495;79;20983;-76
2021/03/08 07:20:13;;;;;;;9.57;4.73;;;;;;;0.29;100.00;99545.44;1815415;79;20988;-74
2021/03/08 07:22:49;;;;;;;10.53;4.70;;;;;;;0.49;100.00;99541.23;1767879;79;20961;-77
2021/03/08 07:25:30;;;;;;;12.03;4.43;;;;;;;0.71;100.00;99539.09;1768075;79;21420;-75
2021/03/08 07:28:03;;;;;;;12.30;5.97;;;;;;;0.95;100.00;99540.28;1767920;81;21088;-76
2021/03/08 07:30:38;;;;;;;10.75;4.90;;;;;;;1.22;100.00;99545.70;1737695;82;21047;-75
2021/03/08 07:33:12;;;;;;;9.23;4.13;;;;;;;1.37;100.00;99541.80;1787954;80;21001;-76
2021/03/08 07:35:48;;;;;;;9.53;4.67;;;;;;;1.42;100.00;99539.61;1768901;80;20915;-76
2021/03/08 07:38:29;;;;;;;11.20;4.87;;;;;;;1.49;100.00;99537.30;1768072;80;21344;-77
2021/03/08 07:41:16;;;;;;;9.23;4.20;;;;;;;1.74;100.00;99541.46;1766960;81;21033;-77
2021/03/08 07:43:47;;;;;;;8.27;3.97;;;;;;;2.02;100.00;99533.34;1768124;81;21071;-76
2021/03/08 07:46:36;;;;;;;7.50;4.50;;;;;;;2.35;100.00;99522.11;1768018;81;21040;-76
2021/03/08 07:49:06;;;;;;;12.07;5.53;;;;;;;2.62;100.00;99526.91;1768310;81;21608;-76
2021/03/08 07:51:36;;;;;;;8.23;4.77;;;;;;;2.88;100.00;99521.11;1768048;81;21149;-75
2021/03/08 07:54:06;;;;;;;7.20;4.40;;;;;;;3.01;100.00;99516.86;1768060;81;21047;-75
2021/03/08 07:56:34;;;;;;;10.77;4.90;;;;;;;3.05;100.00;99516.97;1768181;79;21637;-76
2021/03/08 07:59:03;;;;;;;10.30;4.63;;;;;;;3.07;100.00;99512.83;1768158;79;20933;-77
2021/03/08 08:01:32;;;;;;;10.13;4.57;;;;;;;3.14;100.00;99517.48;1768129;79;20964;-76
2021/03/08 08:04:00;;;;;;;9.60;4.50;;;;;;;3.16;100.00;99514.68;1768071;79;21716;-76
2021/03/08 08:06:29;;;;;;;8.77;4.27;;;;;;;3.16;100.00;99506.16;1757814;80;21564;-76
2021/03/08 08:08:57;;;;;;;10.60;5.37;;;;;;;3.28;100.00;99514.09;1729997;81;21029;-77
2021/03/08 08:11:28;;;;;;;9.13;4.00;;;;;;;3.45;100.00;99508.05;1754671;80;21570;-75
2021/03/08 08:13:58;;;;;;;9.20;4.60;;;;;;;3.66;100.00;99507.93;1754599;81;20963;-76
2021/03/08 08:16:36;;;;;;;14.03;4.60;;;;;;;3.73;100.00;99498.86;1754457;81;21195;-74
2021/03/08 08:19:12;;;;;;;7.67;4.17;;;;;;;3.74;100.00;99501.41;1773880;79;20984;-75
2021/03/08 08:21:44;;;;;;;9.13;3.87;;;;;;;3.92;100.00;99504.72;1817535;79;21438;-77
2021/03/08 08:24:23;;;;;;;8.67;4.43;;;;;;;4.19;100.00;99493.27;1817473;79;21335;-75
2021/03/08 08:26:58;;;;;;;10.90;5.03;;;;;;;4.36;100.00;99485.84;1817395;79;21031;-75
2021/03/08 08:29:26;;;;;;;7.60;4.77;;;;;;;4.45;100.00;99485.97;1755178;81;22688;-75
2021/03/08 08:32:02;;;;;;;22.87;5.10;;;;;;;4.43;100.00;99476.74;1752723;81;21045;-75
2021/03/08 08:34:38;;;;;;;12.13;5.60;;;;;;;4.46;100.00;99481.81;1737767;81;21060;-74
2021/03/08 08:37:18;;;;;;;8.70;4.23;;;;;;;4.49;100.00;99454.73;1688049;85;21113;-75
2021/03/08 08:39:58;;;;;;;12.47;5.45;;;;;;;4.54;100.00;99477.89;1836183;76;27790;-75
2021/03/08 08:42:29;;;;;;;10.83;4.87;;;;;;;4.70;100.00;99475.09;1782865;80;21047;-75
2021/03/08 08:44:58;;;;;;;8.70;4.27;;;;;;;4.94;100.00;99477.26;1855518;77;21284;-75
2021/03/08 08:47:31;;;;;;;10.50;4.80;;;;;;;5.06;100.00;99481.91;1855404;77;20992;-74
2021/03/08 08:50:06;;;;;;;8.50;4.20;;;;;;;5.04;100.00;99471.33;1854577;77;21044;-76
2021/03/08 08:52:47;;;;;;;6.97;4.50;;;;;;;5.02;100.00;99478.68;1855455;77;20973;-75
2021/03/08 08:55:16;;;;;;;8.83;4.20;;;;;;;5.08;100.00;99466.52;1855495;77;20938;-75
2021/03/08 08:58:26;;;;;;;8.00;4.20;;;;;;;5.14;100.00;99481.50;1855640;77;21188;-76
2021/03/08 09:01:15;;;;;;;10.33;4.93;;;;;;;5.11;100.00;99469.73;1855472;77;21040;-75
2021/03/08 09:04:04;;;;;;;12.80;4.50;;;;;;;4.91;100.00;99474.87;1855434;77;20984;-75
2021/03/08 09:06:52;;;;;;;12.70;5.53;;;;;;;4.90;100.00;99479.36;1855572;77;20913;-75
2021/03/08 09:09:37;;;;;;;8.83;4.37;;;;;;;4.95;100.00;99482.95;1855313;77;20969;-75
2021/03/08 09:12:07;;;;;;;7.77;4.43;;;;;;;5.00;100.00;99475.31;1850566;77;21201;-76
2021/03/08 09:14:51;;;;;;;9.67;4.53;;;;;;;5.07;100.00;99471.55;1855254;77;21040;-75
2021/03/08 09:17:41;;;;;;;12.37;5.10;;;;;;;5.08;100.00;99468.72;1845277;76;26489;-74
2021/03/08 09:20:15;;;;;;;8.15;4.65;;;;;;;4.97;100.00;99469.41;1815697;79;20980;-74
2021/03/08 09:22:47;;;;;;;10.80;5.37;;;;;;;4.91;100.00;99462.30;1815504;79;21636;-75
2021/03/08 09:25:26;;;;;;;10.50;5.30;;;;;;;4.89;100.00;99479.53;1810787;79;21470;-75
2021/03/08 09:28:09;;;;;;;10.70;4.80;;;;;;;4.94;100.00;99475.92;1795890;79;20961;-74
2021/03/08 09:30:45;;;;;;;9.60;4.85;;;;;;;5.03;100.00;99472.34;1788079;79;21009;-75
2021/03/08 09:33:18;;;;;;;11.80;5.27;;;;;;;5.14;100.00;99486.03;1723788;82;20961;-74
2021/03/08 09:35:51;;;;;;;10.13;4.60;;;;;;;5.16;100.00;99471.14;1761306;79;21567;-74
2021/03/08 09:38:22;;;;;;;12.13;5.07;;;;;;;5.14;100.00;99479.33;1756113;81;20997;-75
2021/03/08 09:40:59;;;;;;;12.60;5.70;;;;;;;5.08;100.00;99466.52;1747410;81;20993;-76
2021/03/08 09:43:34;;;;;;;12.53;4.90;;;;;;;5.20;100.00;99472.02;1751616;81;21157;-75
2021/03/08 09:46:18;;;;;;;11.83;5.30;;;;;;;5.35;100.00;99466.13;1796020;79;21015;-76
2021/03/08 09:48:54;;;;;;;12.57;5.70;;;;;;;5.54;100.00;99464.66;1742879;81;21718;-75
2021/03/08 09:51:23;;;;;;;10.63;5.20;;;;;;;5.74;100.00;99441.70;1776789;79;21422;-72
2021/03/08 09:53:55;;;;;;;12.80;5.73;;;;;;;5.73;100.00;99453.44;1778030;79;21179;-74
2021/03/08 09:56:25;;;;;;;9.57;4.63;;;;;;;5.69;100.00;99465.81;1788065;79;21020;-73
2021/03/08 09:59:02;;;;;;;12.20;5.67;;;;;;;5.75;100.00;99453.62;1782614;79;21642;-74
2021/03/08 10:01:39;;;;;;;9.83;4.50;;;;;;;5.71;100.00;99449.56;1837615;76;26723;-75
2021/03/08 10:04:17;;;;;;;13.23;5.50;;;;;;;5.60;100.00;99461.88;1796653;78;20992;-75
2021/03/08 10:06:47;;;;;;;10.57;4.93;;;;;;;5.64;100.00;99457.38;1783500;79;22779;-76
2021/03/08 10:09:21;;;;;;;10.07;5.00;;;;;;;5.63;100.00;99452.17;1735831;81;21012;-75
2021/03/08 10:12:00;;;;;;;11.50;5.57;;;;;;;5.70;100.00;99450.08;1741044;81;21040;-74
2021/03/08 10:14:29;;;;;;;11.77;5.27;;;;;;;5.82;100.00;99453.84;1758041;80;21024;-74
2021/03/08 10:17:09;;;;;;;15.87;6.30;;;;;;;5.80;100.00;99451.31;1731162;81;21582;-74
2021/03/08 10:19:38;;;;;;;10.90;5.50;;;;;;;5.81;100.00;99449.50;1740938;82;21192;-75
2021/03/08 10:22:06;;;;;;;14.17;6.50;;;;;;;5.65;100.00;99448.34;1740853;81;21001;-75
2021/03/08 10:24:38;;;;;;;9.57;4.63;;;;;;;5.61;100.00;99427.34;1740980;82;20953;-74
2021/03/08 10:27:10;;;;;;;15.30;5.93;;;;;;;5.51;100.00;99442.19;1741187;82;21079;-74
2021/03/08 10:29:39;;;;;;;18.03;6.47;;;;;;;5.45;100.00;99434.27;1759080;81;21562;-77
2021/03/08 10:32:08;;;;;;;13.73;5.50;;;;;;;5.44;100.00;99435.75;1735897;81;22052;-74
2021/03/08 10:34:38;;;;;;;9.60;5.13;;;;;;;5.54;100.00;99435.16;1757411;79;21552;-73
2021/03/08 10:37:12;;;;;;;11.63;5.15;;;;;;;5.65;100.00;99423.38;1674710;84;20974;-73
2021/03/08 10:39:40;;;;;;;10.60;5.23;;;;;;;5.56;100.00;99430.50;1744905;82;21057;-74
2021/03/08 10:42:08;;;;;;;11.17;4.90;;;;;;;5.54;100.00;99432.98;1744900;82;20961;-74
2021/03/08 10:44:37;;;;;;;10.80;5.37;;;;;;;5.57;100.00;99421.45;1744913;82;22106;-75
2021/03/08 10:47:13;;;;;;;10.23;5.13;;;;;;;5.60;100.00;99417.13;1744873;82;21045;-74
2021/03/08 10:49:50;;;;;;;11.53;5.50;;;;;;;5.80;100.00;99420.97;1746396;80;21128;-75
2021/03/08 10:52:25;;;;;;;12.43;5.67;;;;;;;6.06;100.00;99433.12;1845424;76;27039;-74
2021/03/08 10:54:53;;;;;;;12.50;4.93;;;;;;;6.04;100.00;99421.19;1810686;78;20905;-74
2021/03/08 10:57:23;;;;;;;11.00;5.37;;;;;;;6.04;100.00;99422.53;1784004;79;21404;-75
2021/03/08 10:59:53;;;;;;;11.47;5.90;;;;;;;6.00;100.00;99400.18;1815319;79;20992;-75
2021/03/08 11:02:21;;;;;;;12.80;5.97;;;;;;;5.95;100.00;99418.55;1815394;77;21027;-74
2021/03/08 11:04:52;;;;;;;11.53;4.83;;;;;;;5.87;100.00;99408.62;1815451;79;21509;-75
2021/03/08 11:07:32;;;;;;;11.03;5.50;;;;;;;5.86;100.00;99390.81;1766537;81;21008;-75
2021/03/08 11:10:01;;;;;;;12.23;5.37;;;;;;;5.90;100.00;99397.58;1770109;81;21032;-75
2021/03/08 11:12:30;;;;;;;11.73;5.53;;;;;;;5.80;100.00;99398.17;1745126;81;21589;-76
2021/03/08 11:14:59;;;;;;;8.90;4.90;;;;;;;5.79;100.00;99389.28;1770255;81;21494;-77
2021/03/08 11:17:40;;;;;;;15.50;4.80;;;;;;;5.77;100.00;99401.16;1770095;81;21111;-75
2021/03/08 11:20:13;;;;;;;10.87;4.87;;;;;;;5.82;100.00;99397.00;1770245;81;21032;-74
2021/03/08 11:23:00;;;;;;;9.70;5.03;;;;;;;5.87;100.00;99400.06;1770230;81;21370;-73
2021/03/08 11:25:41;;;;;;;10.73;4.77;;;;;;;6.00;100.00;99403.73;1845357;76;26452;-75
2021/03/08 11:28:10;;;;;;;;;;;;;;;5.89;100.00;99395.38;1818123;79;20999;-75
2021/03/08 11:30:42;;;;;;;9.70;5.00;;;;;;;5.87;100.00;99385.30;1815413;79;21119;-73
2021/03/08 11:33:11;;;;;;;12.23;4.60;;;;;;;5.97;100.00;99380.39;1815352;79;21035;-73
2021/03/08 11:35:40;;;;;;;8.13;4.63;;;;;;;6.23;100.00;99383.04;1784500;78;20980;-74
2021/03/08 11:38:14;;;;;;;11.20;4.53;;;;;;;6.44;100.00;99373.25;1735934;82;21179;-75
2021/03/08 11:40:47;;;;;;;11.83;4.97;;;;;;;6.35;99.45;99380.42;1741125;82;21025;-75
2021/03/08 11:43:16;;;;;;;11.88;4.85;;;;;;;6.15;100.00;99384.36;1741328;81;21266;-76
2021/03/08 11:45:45;;;;;;;9.60;4.23;;;;;;;6.02;100.00;99372.20;1741129;82;20965;-75
2021/03/08 11:48:13;;;;;;;8.87;4.13;;;;;;;5.75;100.00;99373.14;1741299;82;20986;-75
2021/03/08 11:50:41;;;;;;;9.30;4.50;;;;;;;5.49;100.00;99376.64;1741089;82;21017;-75
2021/03/08 11:53:11;;;;;;;9.93;4.63;;;;;;;5.35;100.00;99377.66;1736908;82;20992;-75
2021/03/08 11:55:39;;;;;;;7.97;4.23;;;;;;;5.24;100.00;99380.94;1741032;82;21658;-74